Time;durP1;ratioP1;P1;durP2;ratioP2;P2;SDS_P1;SDS_P2;PMS_P1;PMS_P2;Temp;Humidity;BMP_temperature;BMP_pressure;BME280_temperature;BME280_humidity;BME280_pressure;Samples;Min_cycle;Max_cycle;Signal;HPM_P1;HPM_P2
2022/09/18 00:01:30;;;;;;;2.00;1.77;;;13.00;99.90;13.40;101571.00;;;;5118562;27;20192;-72
2022/09/18 00:04:00;;;;;;;0.90;0.90;;;13.10;99.90;14.00;101595.00;;;;5118364;27;20544;-71
2022/09/18 00:06:32;;;;;;;0.90;0.90;;;13.30;99.90;14.20;101606.00;;;;5118211;27;20269;-72
2022/09/18 00:09:00;;;;;;;1.00;1.00;;;13.60;99.90;14.20;101607.00;;;;5118435;27;20243;-71
2022/09/18 00:11:32;;;;;;;1.10;1.10;;;13.50;99.90;14.60;101609.00;;;;5118582;27;20215;-72
2022/09/18 00:14:01;;;;;;;1.20;1.20;;;13.60;99.90;14.80;101604.00;;;;5136556;27;20200;-72
2022/09/18 00:16:27;;;;;;;1.87;1.77;;;14.00;99.90;14.60;101594.00;;;;5118459;27;20181;-72
2022/09/18 00:18:53;;;;;;;1.10;1.10;;;14.00;99.90;14.30;101603.00;;;;5118014;27;20185;-72
2022/09/18 00:21:27;;;;;;;1.00;1.00;;;13.90;99.90;14.30;101589.00;;;;5118463;27;20193;-71
2022/09/18 00:23:59;;;;;;;1.07;1.07;;;13.70;99.90;14.50;101596.00;;;;5118016;27;20185;-71
2022/09/18 00:26:26;;;;;;;1.20;1.20;;;13.90;99.90;14.30;101600.00;;;;5101146;27;20178;-72
2022/09/18 00:28:57;;;;;;;0.90;0.90;;;13.80;99.90;13.60;101596.00;;;;5100833;27;20184;-73
2022/09/18 00:31:28;;;;;;;0.70;0.70;;;13.50;99.90;13.40;101571.00;;;;5136509;27;20213;-73
2022/09/18 00:33:59;;;;;;;0.87;0.87;;;13.30;99.90;13.00;101577.00;;;;5117934;27;20177;-73
2022/09/18 00:36:26;;;;;;;0.70;0.70;;;13.00;99.90;13.20;101580.00;;;;5117887;27;20532;-73
2022/09/18 00:38:55;;;;;;;1.43;1.33;;;13.00;99.90;12.90;101570.00;;;;5118091;27;20171;-73
2022/09/18 00:41:31;;;;;;;0.63;0.63;;;12.90;99.90;12.80;101584.00;;;;5100669;27;20183;-73
2022/09/18 00:44:48;;;;;;;0.73;0.73;;;12.80;99.90;13.10;101589.00;;;;5100486;27;20266;-73
2022/09/18 00:47:23;;;;;;;0.60;0.60;;;12.90;99.90;12.80;101586.00;;;;5117878;27;20571;-74
2022/09/18 00:50:16;;;;;;;0.80;0.80;;;12.80;99.90;13.50;101592.00;;;;5117284;27;20194;-74
2022/09/18 00:52:55;;;;;;;0.70;0.70;;;13.10;99.90;13.30;101575.00;;;;5105258;27;20305;-73
2022/09/18 00:55:39;;;;;;;0.60;0.60;;;13.10;99.90;12.80;101588.00;;;;5116740;27;20184;-74
2022/09/18 00:58:06;;;;;;;0.50;0.50;;;12.90;99.90;12.80;101555.00;;;;5118103;27;20237;-74
2022/09/18 01:00:32;;;;;;;0.70;0.70;;;12.80;99.90;13.10;101586.00;;;;5100319;27;20181;-74
2022/09/18 01:03:03;;;;;;;1.23;1.00;;;12.80;99.90;13.20;101588.00;;;;5100163;27;20281;-75
2022/09/18 01:05:58;;;;;;;0.60;0.60;;;12.90;99.90;13.30;101585.00;;;;5117731;27;20165;-74
2022/09/18 01:08:48;;;;;;;0.60;0.60;;;13.00;99.90;13.20;101594.00;;;;5117581;27;20579;-74
2022/09/18 01:11:33;;;;;;;1.20;1.10;;;13.00;99.90;13.30;101573.00;;;;5135757;27;20237;-74
2022/09/18 01:14:06;;;;;;;0.60;0.60;;;13.10;99.90;12.90;101578.00;;;;5117215;27;20180;-74
2022/09/18 01:17:02;;;;;;;0.60;0.60;;;13.00;99.90;13.10;101584.00;;;;5135437;27;20188;-73
2022/09/18 01:20:11;;;;;;;0.50;0.50;;;13.00;99.90;12.90;101583.00;;;;5135484;27;20176;-73
2022/09/18 01:23:01;;;;;;;0.50;0.50;;;12.90;99.90;12.80;101580.00;;;;5135380;27;20183;-74
2022/09/18 01:26:04;;;;;;;1.60;1.13;;;12.80;99.90;12.90;101594.00;;;;5116734;27;20181;-74
2022/09/18 01:29:26;;;;;;;0.50;0.50;;;12.80;99.90;12.80;101582.00;;;;5117156;27;20180;-74
2022/09/18 01:32:14;;;;;;;0.57;0.57;;;12.70;99.90;13.20;101511.00;;;;5116531;27;20576;-74
2022/09/18 01:35:31;;;;;;;0.60;0.60;;;12.80;99.90;13.00;101571.00;;;;5116920;27;20174;-73
2022/09/18 01:38:08;;;;;;;1.03;1.03;;;12.80;99.90;13.20;101573.00;;;;5015448;28;20229;-73
2022/09/18 01:40:48;;;;;;;2.30;0.93;;;12.90;99.90;12.90;101569.00;;;;4998891;28;20184;-73
2022/09/18 01:43:17;;;;;;;0.63;0.63;;;12.70;99.90;12.70;101575.00;;;;5067245;27;20187;-74
2022/09/18 01:45:47;;;;;;;0.73;0.73;;;12.60;99.90;12.60;101575.00;;;;5116496;27;20169;-74
2022/09/18 01:48:30;;;;;;;0.50;0.50;;;12.50;99.90;12.40;101564.00;;;;5116369;27;20173;-74
2022/09/18 01:51:17;;;;;;;0.60;0.60;;;12.40;99.90;12.50;101561.00;;;;5099563;27;20246;-74
2022/09/18 01:54:06;;;;;;;0.57;0.57;;;12.40;99.90;12.10;101569.00;;;;5099684;27;20180;-74
2022/09/18 01:56:43;;;;;;;0.50;0.50;;;12.20;99.90;11.90;101567.00;;;;5116687;27;20180;-74
2022/09/18 01:59:16;;;;;;;0.80;0.80;;;12.10;99.90;11.90;101501.00;;;;5116486;27;20713;-74
2022/09/18 02:01:45;;;;;;;1.03;1.00;;;12.00;99.90;12.00;101554.00;;;;5115784;27;20244;-72
2022/09/18 02:04:22;;;;;;;1.63;1.40;;;12.00;99.90;12.10;101551.00;;;;5116396;27;20182;-72
2022/09/18 02:06:52;;;;;;;1.00;1.00;;;12.00;99.90;12.10;101552.00;;;;5099355;27;20269;-72
2022/09/18 02:09:18;;;;;;;1.07;1.07;;;12.00;99.90;12.00;101548.00;;;;5134541;27;20175;-72
2022/09/18 02:11:51;;;;;;;0.60;0.60;;;12.00;99.90;12.00;101542.00;;;;5134475;27;20196;-71
2022/09/18 02:14:26;;;;;;;0.73;0.73;;;12.00;99.90;12.00;101546.00;;;;5099267;27;20569;-73
2022/09/18 02:17:05;;;;;;;2.00;0.90;;;12.00;99.90;12.00;101566.00;;;;5115804;27;20225;-72
2022/09/18 02:19:45;;;;;;;0.80;0.80;;;12.00;99.90;12.00;101558.00;;;;5116111;27;20668;-73
2022/09/18 02:22:17;;;;;;;2.20;0.90;;;12.10;99.90;12.00;101559.00;;;;5099015;27;20217;-72
2022/09/18 02:24:47;;;;;;;1.10;0.80;;;12.10;99.90;12.40;101559.00;;;;5116214;28;20635;-73
2022/09/18 02:27:15;;;;;;;0.50;0.50;;;12.20;99.90;12.10;101556.00;;;;5098867;28;20184;-73
2022/09/18 02:29:44;;;;;;;1.00;1.00;;;12.20;99.90;12.00;101539.00;;;;5115993;28;20192;-72
2022/09/18 02:32:11;;;;;;;0.60;0.60;;;12.00;99.90;11.90;101558.00;;;;5115476;28;20294;-74
2022/09/18 02:34:37;;;;;;;1.97;1.13;;;11.90;99.90;12.20;101489.00;;;;5134456;28;20171;-74
2022/09/18 02:37:54;;;;;;;0.60;0.60;;;12.00;99.90;11.90;101545.00;;;;5098949;28;20538;-74
2022/09/18 02:40:54;;;;;;;0.70;0.70;;;12.10;99.90;11.70;101548.00;;;;5115917;28;20232;-74
2022/09/18 02:43:56;;;;;;;0.80;0.80;;;11.90;99.90;11.60;101541.00;;;;5098795;28;20176;-75
2022/09/18 02:46:41;;;;;;;2.13;1.93;;;11.80;99.90;11.80;101544.00;;;;5115728;28;20620;-72
2022/09/18 02:49:50;;;;;;;1.60;1.50;;;11.80;99.90;12.20;101546.00;;;;5098743;28;20186;-73
2022/09/18 02:53:08;;;;;;;0.77;0.77;;;11.90;99.90;12.40;101543.00;;;;5101907;28;20220;-72
2022/09/18 02:55:57;;;;;;;1.43;1.30;;;12.10;99.90;12.30;101549.00;;;;5084376;28;20188;-75
2022/09/18 02:58:34;;;;;;;0.90;0.90;;;12.00;99.90;12.40;101531.00;;;;5118191;28;20297;-75
2022/09/18 03:01:04;;;;;;;0.60;0.60;;;12.20;99.90;12.80;101548.00;;;;5115708;28;20187;-75
2022/09/18 03:03:37;;;;;;;2.47;1.23;;;12.30;99.90;12.90;101552.00;;;;5115574;28;20190;-75
2022/09/18 03:06:07;;;;;;;0.60;0.60;;;12.50;99.90;13.30;101563.00;;;;5115834;28;20293;-73
2022/09/18 03:08:34;;;;;;;0.80;0.80;;;12.60;99.90;13.40;101572.00;;;;5098368;28;20262;-74
2022/09/18 03:11:03;;;;;;;0.83;0.83;;;12.80;99.90;13.10;101568.00;;;;5115687;28;20159;-73
2022/09/18 03:13:29;;;;;;;0.80;0.80;;;12.70;99.90;13.10;101558.00;;;;5115397;28;20203;-73
2022/09/18 03:15:55;;;;;;;0.90;0.90;;;12.70;99.90;13.10;101572.00;;;;5098168;28;20183;-73
2022/09/18 03:18:23;;;;;;;1.00;1.00;;;12.50;99.90;13.10;101552.00;;;;5116550;27;20662;-73
2022/09/18 03:20:49;;;;;;;1.10;1.10;;;12.60;99.90;13.50;101566.00;;;;5119906;27;20536;-72
2022/09/18 03:23:15;;;;;;;0.90;0.90;;;12.60;99.90;13.30;101557.00;;;;5119260;27;20191;-73
2022/09/18 03:25:40;;;;;;;1.10;1.10;;;12.70;99.90;12.80;101561.00;;;;5137900;27;20181;-71
2022/09/18 03:28:09;;;;;;;1.30;1.30;;;12.50;99.90;12.90;101556.00;;;;5119141;27;20241;-72
2022/09/18 03:30:35;;;;;;;0.70;0.70;;;12.40;99.90;12.30;101541.00;;;;5119394;27;20213;-72
2022/09/18 03:33:01;;;;;;;1.10;1.10;;;12.30;99.90;12.30;101538.00;;;;5118890;27;20316;-72
2022/09/18 03:35:27;;;;;;;0.93;0.93;;;12.00;99.90;12.20;101536.00;;;;5119900;27;20329;-73
2022/09/18 03:37:54;;;;;;;1.70;1.60;;;12.00;99.90;12.40;101537.00;;;;5118888;27;20621;-72
2022/09/18 03:40:20;;;;;;;0.80;0.80;;;12.00;99.90;12.30;101457.00;;;;5137762;27;20914;-72
2022/09/18 03:42:47;;;;;;;1.57;0.80;;;12.10;99.90;12.20;101521.00;;;;5137507;27;20183;-72
2022/09/18 03:45:14;;;;;;;0.70;0.70;;;12.00;99.90;12.10;101520.00;;;;5101529;27;20303;-73
2022/09/18 03:47:40;;;;;;;0.80;0.80;;;11.90;99.90;12.70;101456.00;;;;5119101;27;20254;-72
2022/09/18 03:50:10;;;;;;;0.80;0.80;;;12.00;99.90;12.60;101504.00;;;;5137312;27;20184;-72
2022/09/18 03:52:37;;;;;;;0.90;0.90;;;12.10;99.90;12.80;101505.00;;;;5118786;27;20722;-72
2022/09/18 03:55:03;;;;;;;0.80;0.80;;;12.20;99.90;12.20;101493.00;;;;5118669;27;20270;-72
2022/09/18 03:57:29;;;;;;;2.07;1.97;;;12.10;99.90;12.00;101501.00;;;;5137219;27;20197;-72
2022/09/18 03:59:55;;;;;;;1.30;1.30;;;12.00;99.90;12.00;101494.00;;;;5118234;27;20618;-72
2022/09/18 04:02:21;;;;;;;0.87;0.87;;;11.90;99.90;11.80;101514.00;;;;5118327;27;20187;-72
2022/09/18 04:04:47;;;;;;;0.60;0.60;;;11.90;99.90;12.20;101513.00;;;;5118445;27;20175;-72
2022/09/18 04:07:13;;;;;;;0.60;0.60;;;11.90;99.90;12.10;101516.00;;;;5136926;27;20167;-72
2022/09/18 04:09:39;;;;;;;0.87;0.87;;;11.90;99.90;12.30;101525.00;;;;5118976;27;20201;-72
2022/09/18 04:12:05;;;;;;;0.70;0.70;;;12.00;99.90;12.10;101495.00;;;;5118272;27;20662;-73
2022/09/18 04:14:31;;;;;;;0.80;0.80;;;11.90;99.90;12.60;101517.00;;;;5136448;27;20633;-73
2022/09/18 04:16:57;;;;;;;0.70;0.70;;;12.10;99.90;12.10;101512.00;;;;5118528;27;20178;-72
2022/09/18 04:19:23;;;;;;;0.70;0.70;;;12.00;99.90;12.30;101506.00;;;;5118445;27;20581;-73
2022/09/18 04:21:49;;;;;;;1.80;1.70;;;12.00;99.90;12.40;101508.00;;;;5118641;27;20168;-72
2022/09/18 04:24:15;;;;;;;0.87;0.87;;;12.10;99.90;12.30;101494.00;;;;5101236;27;20602;-73
2022/09/18 04:26:41;;;;;;;2.50;2.30;;;12.00;99.90;11.90;101493.00;;;;5117894;27;20169;-73
2022/09/18 04:29:07;;;;;;;0.60;0.60;;;11.90;99.90;11.70;101508.00;;;;5136401;27;20188;-74
2022/09/18 04:31:33;;;;;;;0.60;0.60;;;11.80;99.90;11.70;101498.00;;;;5136105;27;20663;-74
2022/09/18 04:34:01;;;;;;;0.60;0.60;;;11.70;99.90;11.80;101505.00;;;;5101077;27;20183;-72
2022/09/18 04:36:27;;;;;;;1.33;1.17;;;11.70;99.90;12.00;101502.00;;;;5136256;27;20199;-72
2022/09/18 04:38:53;;;;;;;0.60;0.60;;;11.80;99.90;12.20;101501.00;;;;5101094;27;20571;-72
2022/09/18 04:41:19;;;;;;;0.77;0.77;;;11.90;99.90;11.60;101446.00;;;;5117643;27;20176;-72
2022/09/18 04:43:45;;;;;;;1.90;1.77;;;11.80;99.90;11.70;101427.00;;;;5100282;27;20688;-72
2022/09/18 04:46:13;;;;;;;11.57;1.50;;;11.70;99.90;12.10;101494.00;;;;5117615;27;20179;-72
2022/09/18 04:48:42;;;;;;;1.37;1.27;;;11.80;99.90;11.70;101491.00;;;;5118289;27;20172;-72
2022/09/18 04:51:08;;;;;;;0.60;0.60;;;11.70;99.90;11.60;101499.00;;;;5117826;27;20206;-72
2022/09/18 04:53:36;;;;;;;0.93;0.93;;;11.70;99.90;11.80;101498.00;;;;5100612;27;20244;-73
2022/09/18 04:56:03;;;;;;;3.90;3.60;;;11.60;99.90;11.50;101452.00;;;;5117525;27;20175;-72
2022/09/18 04:58:31;;;;;;;1.50;1.40;;;11.50;99.90;11.70;101502.00;;;;5135843;27;20633;-72
2022/09/18 05:00:58;;;;;;;1.83;1.73;;;11.60;99.90;11.40;101438.00;;;;5117333;27;20232;-72
2022/09/18 05:03:24;;;;;;;1.13;1.13;;;11.50;99.90;11.60;101490.00;;;;5136200;27;20181;-72
2022/09/18 05:05:50;;;;;;;0.90;0.83;;;11.60;99.90;11.40;101508.00;;;;5117363;27;20533;-71
2022/09/18 05:08:16;;;;;;;0.90;0.90;;;11.40;99.90;11.60;101497.00;;;;5117397;27;20177;-75
2022/09/18 05:10:42;;;;;;;0.70;0.70;;;11.50;99.90;11.60;101496.00;;;;5117367;27;20182;-72
2022/09/18 05:13:09;;;;;;;0.87;0.87;;;11.50;99.90;11.30;101500.00;;;;5117310;27;20227;-72
2022/09/18 05:15:38;;;;;;;2.63;0.90;;;11.40;99.90;11.30;101500.00;;;;5117378;27;20199;-74
2022/09/18 05:18:10;;;;;;;0.70;0.70;;;11.30;99.90;11.50;101499.00;;;;5100690;27;20280;-74
2022/09/18 05:20:36;;;;;;;3.80;1.53;;;11.40;99.90;11.50;101494.00;;;;5117060;27;20185;-74
2022/09/18 05:23:02;;;;;;;0.90;0.90;;;11.50;99.90;11.10;101495.00;;;;5135178;27;20536;-73
2022/09/18 05:25:29;;;;;;;0.60;0.60;;;11.40;99.90;11.70;101496.00;;;;5116399;27;20220;-73
2022/09/18 05:28:00;;;;;;;1.33;0.90;;;11.50;99.90;12.60;101529.00;;;;5100043;27;20175;-73
2022/09/18 05:30:27;;;;;;;0.70;0.70;;;11.90;99.90;12.90;101525.00;;;;5099925;27;20635;-74
2022/09/18 05:33:14;;;;;;;0.80;0.80;;;12.20;99.90;12.60;101524.00;;;;5115653;27;20218;-76
2022/09/18 05:36:17;;;;;;;0.90;0.90;;;12.10;99.90;12.30;101511.00;;;;5100077;27;20203;-77
2022/09/18 05:39:18;;;;;;;1.90;1.80;;;12.10;99.90;12.00;101511.00;;;;5117655;27;20616;-74
2022/09/18 05:41:49;;;;;;;0.70;0.70;;;11.90;99.90;12.50;101521.00;;;;5115960;27;20171;-74
2022/09/18 05:44:18;;;;;;;1.10;1.00;;;12.00;99.90;12.30;101513.00;;;;5117068;27;20183;-74
2022/09/18 05:46:53;;;;;;;0.87;0.87;;;12.10;99.90;12.40;101511.00;;;;5116254;27;20208;-76
2022/09/18 05:50:01;;;;;;;1.17;1.17;;;12.10;99.90;12.30;101513.00;;;;5116941;27;20175;-75
2022/09/18 05:52:37;;;;;;;0.77;0.77;;;12.00;99.90;12.40;101508.00;;;;5104253;27;20211;-74
2022/09/18 05:55:29;;;;;;;1.17;1.17;;;12.00;99.90;12.00;101517.00;;;;5115691;28;20201;-75
2022/09/18 05:58:00;;;;;;;1.70;1.37;;;11.80;99.90;11.80;101511.00;;;;5096985;28;20611;-74
2022/09/18 06:00:47;;;;;;;0.80;0.80;;;11.60;99.90;11.60;101507.00;;;;5114682;28;20206;-75
2022/09/18 06:03:36;;;;;;;0.57;0.57;;;11.60;99.90;11.60;101436.00;;;;5078981;28;20190;-73
2022/09/18 06:06:01;;;;;;;1.17;1.07;;;11.40;99.90;11.50;101505.00;;;;5097129;27;20179;-74
2022/09/18 06:09:02;;;;;;;0.97;0.90;;;11.40;99.90;11.80;101475.00;;;;5106953;27;20197;-74
2022/09/18 06:11:28;;;;;;;0.70;0.70;;;11.50;99.90;11.10;101496.00;;;;5116298;27;20200;-74
2022/09/18 06:13:54;;;;;;;1.23;1.23;;;11.40;99.90;11.30;101505.00;;;;5116186;27;20629;-74
2022/09/18 06:16:23;;;;;;;0.67;0.67;;;11.40;99.90;11.30;101507.00;;;;5134228;27;20175;-74
2022/09/18 06:18:51;;;;;;;2.10;2.00;;;11.40;99.90;11.90;101499.00;;;;5116074;27;20167;-74
2022/09/18 06:21:17;;;;;;;0.63;0.63;;;11.50;99.90;11.50;101495.00;;;;5115948;27;20190;-74
2022/09/18 06:24:03;;;;;;;1.67;1.07;;;11.60;99.90;11.60;101496.00;;;;5115773;27;20186;-74
2022/09/18 06:26:34;;;;;;;2.17;1.37;;;11.60;99.90;11.40;101505.00;;;;5134310;27;20175;-74
2022/09/18 06:29:02;;;;;;;1.27;1.23;;;11.60;99.90;11.90;101499.00;;;;5116228;28;20167;-73
2022/09/18 06:31:28;;;;;;;0.63;0.63;;;11.80;99.90;12.20;101504.00;;;;5115727;28;20214;-74
2022/09/18 06:34:03;;;;;;;1.07;1.07;;;11.90;99.90;12.00;101442.00;;;;5115860;28;20253;-74
2022/09/18 06:36:52;;;;;;;0.60;0.60;;;11.90;99.90;12.10;101495.00;;;;5098760;28;20187;-74
2022/09/18 06:39:33;;;;;;;3.43;2.27;;;11.90;99.90;12.40;101498.00;;;;5104930;28;20196;-74
2022/09/18 06:42:23;;;;;;;0.90;0.90;;;12.00;99.90;12.00;101484.00;;;;5088963;28;20573;-73
2022/09/18 06:45:08;;;;;;;1.07;1.07;;;11.90;99.90;12.00;101487.00;;;;5133314;28;20587;-77
2022/09/18 06:47:45;;;;;;;3.60;1.97;;;11.90;99.90;12.30;101486.00;;;;5095551;28;20260;-76
2022/09/18 06:50:13;;;;;;;2.07;1.97;;;12.10;99.90;12.60;101504.00;;;;5095987;28;20176;-77
2022/09/18 06:53:22;;;;;;;0.83;0.83;;;12.20;99.90;12.30;101500.00;;;;5099221;27;20196;-77
2022/09/18 06:56:08;;;;;;;1.77;1.57;;;12.30;99.90;12.30;101459.00;;;;5108580;27;20545;-76
2022/09/18 06:58:36;;;;;;;0.80;0.80;;;12.20;99.90;12.70;101486.00;;;;5134529;27;20214;-77
2022/09/18 07:01:30;;;;;;;1.17;1.07;;;12.30;99.90;12.60;101489.00;;;;5119782;27;20171;-68
2022/09/18 07:04:19;;;;;;;1.00;1.00;;;12.40;99.90;12.30;101422.00;;;;5099673;28;20182;-78
2022/09/18 07:06:53;;;;;;;0.53;0.53;;;12.30;99.90;12.50;101414.00;;;;5089519;28;20635;-78
2022/09/18 07:09:19;;;;;;;1.83;1.73;;;12.30;99.90;12.60;101494.00;;;;5102241;27;20198;-73
2022/09/18 07:11:50;;;;;;;0.63;0.63;;;12.40;99.90;12.30;101483.00;;;;5119760;27;20218;-78
2022/09/18 07:14:36;;;;;;;3.90;2.50;;;12.20;99.90;12.20;101429.00;;;;5102896;28;20196;-77
2022/09/18 07:17:21;;;;;;;1.37;1.13;;;12.20;99.90;12.40;101493.00;;;;5099063;28;20178;-77
2022/09/18 07:19:47;;;;;;;2.80;1.03;;;12.30;99.90;12.50;101484.00;;;;5099348;28;20173;-77
2022/09/18 07:22:13;;;;;;;1.40;1.40;;;12.30;99.90;12.40;101483.00;;;;5098864;28;20168;-77
2022/09/18 07:25:11;;;;;;;1.87;1.70;;;12.30;99.90;12.70;101494.00;;;;5101534;27;20349;-77
2022/09/18 07:27:39;;;;;;;2.27;1.53;;;12.40;99.90;12.40;101482.00;;;;5101979;27;20549;-78
2022/09/18 07:30:31;;;;;;;1.70;1.47;;;12.50;99.90;12.50;101456.00;;;;5118990;27;20187;-75
2022/09/18 07:33:23;;;;;;;2.07;1.73;;;12.40;99.90;12.20;101474.00;;;;5136385;27;20211;-78
2022/09/18 07:39:01;;;;;;;1.57;1.47;;;12.50;99.90;12.80;101479.00;;;;5100641;27;20196;-72
2022/09/18 07:41:59;;;;;;;3.23;2.97;;;12.70;99.90;13.10;101466.00;;;;5054611;27;20668;-71
2022/09/18 07:44:44;;;;;;;1.23;1.23;;;12.90;99.90;12.70;101471.00;;;;5101465;27;20218;-71
2022/09/18 07:47:13;;;;;;;0.60;0.60;;;12.80;99.90;13.60;101488.00;;;;5119131;27;20176;-72
2022/09/18 07:49:39;;;;;;;0.73;0.73;;;13.10;99.90;13.50;101471.00;;;;5119249;27;20173;-72
2022/09/18 07:52:11;;;;;;;2.57;2.17;;;13.30;99.90;13.10;101492.00;;;;5118153;27;20209;-71
2022/09/18 07:54:37;;;;;;;0.90;0.90;;;13.00;99.90;13.00;101493.00;;;;5101188;27;20664;-72
2022/09/18 07:57:04;;;;;;;1.17;1.03;;;13.00;99.90;12.90;101484.00;;;;5101718;27;20184;-69
2022/09/18 07:59:30;;;;;;;0.70;0.70;;;12.90;99.90;12.90;101478.00;;;;5118391;27;20190;-71
2022/09/18 08:01:58;;;;;;;1.07;1.07;;;12.90;99.90;12.70;101471.00;;;;5116777;27;20177;-71
2022/09/18 08:04:25;;;;;;;0.73;0.73;;;12.90;99.90;12.80;101478.00;;;;5116121;27;20216;-71
2022/09/18 08:07:02;;;;;;;2.03;1.93;;;12.90;99.90;13.00;101472.00;;;;5135037;27;20193;-71
2022/09/18 08:09:31;;;;;;;0.60;0.60;;;13.00;99.90;14.10;101485.00;;;;5117443;27;20202;-72
2022/09/18 08:11:57;;;;;;;1.50;1.37;;;13.40;99.90;14.00;101487.00;;;;5116488;27;20197;-71
2022/09/18 08:14:22;;;;;;;3.67;1.37;;;13.60;99.90;13.60;101458.00;;;;5099556;27;20541;-72
2022/09/18 08:16:48;;;;;;;0.67;0.67;;;13.50;99.90;14.00;101493.00;;;;5118438;27;20184;-72
2022/09/18 08:19:17;;;;;;;2.43;2.20;;;13.70;99.90;14.20;101480.00;;;;5117905;27;20177;-72
2022/09/18 08:21:45;;;;;;;0.40;0.40;;;13.90;99.90;14.70;101494.00;;;;5118419;27;20623;-72
2022/09/18 08:24:16;;;;;;;4.97;2.20;;;14.10;99.90;14.50;101511.00;;;;5101312;27;20186;-71
2022/09/18 08:26:42;;;;;;;1.90;1.73;;;14.10;99.90;13.70;101481.00;;;;5101631;27;20180;-72
2022/09/18 08:29:07;;;;;;;0.97;0.83;;;13.90;99.90;13.90;101497.00;;;;5118280;27;20180;-71
2022/09/18 08:31:35;;;;;;;0.90;0.90;;;13.80;99.90;14.10;101447.00;;;;5118059;27;20207;-72
2022/09/18 08:34:01;;;;;;;1.30;1.20;;;13.90;99.90;13.80;101516.00;;;;5136181;27;20190;-72
2022/09/18 08:36:30;;;;;;;3.57;3.20;;;13.80;99.90;13.80;101503.00;;;;5136325;27;20268;-72
2022/09/18 08:38:56;;;;;;;0.87;0.87;;;13.70;99.90;14.40;101505.00;;;;5136289;27;20178;-72
2022/09/18 08:42:00;;;;;;;1.83;1.73;;;13.90;99.90;14.10;101520.00;;;;5117632;27;20262;-72
2022/09/18 08:44:38;;;;;;;2.90;2.17;;;13.90;99.90;14.30;101529.00;;;;5135972;27;20189;-72
2022/09/18 08:47:20;;;;;;;0.60;0.60;;;14.00;99.90;14.40;101522.00;;;;5136082;27;20180;-71
2022/09/18 08:50:19;;;;;;;0.67;0.67;;;14.10;99.90;14.20;101513.00;;;;5135962;27;20209;-71
2022/09/18 08:52:50;;;;;;;2.87;2.03;;;14.00;99.90;14.50;101508.00;;;;5117902;27;20221;-72
2022/09/18 08:55:26;;;;;;;0.90;0.90;;;14.00;99.90;14.00;101496.00;;;;5100669;27;20613;-71
2022/09/18 08:57:59;;;;;;;0.70;0.70;;;14.00;99.90;14.00;101506.00;;;;5117832;27;20162;-71
2022/09/18 09:00:36;;;;;;;1.53;0.63;;;13.90;99.90;15.10;101510.00;;;;5117828;27;20257;-72
2022/09/18 09:03:23;;;;;;;0.80;0.80;;;14.30;99.90;15.00;101526.00;;;;5117408;27;20166;-72
2022/09/18 09:06:04;;;;;;;1.73;1.63;;;14.60;99.90;14.50;101502.00;;;;5135627;27;20165;-71
2022/09/18 09:09:04;;;;;;;1.10;1.10;;;14.40;99.90;15.00;101501.00;;;;5135825;27;20190;-72
2022/09/18 09:11:52;;;;;;;0.70;0.70;;;14.60;99.90;15.40;101512.00;;;;5135374;27;20175;-72
2022/09/18 09:14:37;;;;;;;0.50;0.50;;;15.00;99.90;16.10;101518.00;;;;5117046;27;20237;-72
2022/09/18 09:17:20;;;;;;;0.90;0.90;;;15.40;99.90;16.30;101525.00;;;;5116194;27;20634;-72
2022/09/18 09:20:12;;;;;;;0.40;0.40;;;15.70;99.90;16.00;101528.00;;;;5117530;27;20176;-71
2022/09/18 09:23:03;;;;;;;2.13;1.80;;;15.70;99.90;16.10;101516.00;;;;5135269;27;20626;-72
2022/09/18 09:25:50;;;;;;;1.00;0.70;;;15.70;99.90;15.40;101505.00;;;;5116994;27;20182;-72
2022/09/18 09:28:48;;;;;;;0.83;0.77;;;15.40;99.90;15.80;101520.00;;;;5117284;27;20190;-72
2022/09/18 09:31:23;;;;;;;5.37;1.10;;;15.40;99.90;15.80;101505.00;;;;5134755;27;20535;-71
2022/09/18 09:34:05;;;;;;;1.77;0.93;;;15.50;99.90;16.00;101515.00;;;;5116793;27;20595;-72
2022/09/18 09:36:33;;;;;;;1.50;1.27;;;15.60;99.90;15.60;101520.00;;;;5135290;27;20190;-71
2022/09/18 09:39:19;;;;;;;1.70;1.17;;;15.50;99.90;15.60;101469.00;;;;5099831;27;20271;-71
2022/09/18 09:42:02;;;;;;;0.73;0.73;;;15.60;99.90;16.50;101506.00;;;;5100061;27;20633;-70
2022/09/18 09:45:13;;;;;;;0.30;0.30;;;15.90;99.90;16.30;101504.00;;;;5116787;27;20189;-71
2022/09/18 09:48:03;;;;;;;1.27;1.10;;;15.80;99.90;15.90;101505.00;;;;5116529;27;20711;-72
2022/09/18 09:50:59;;;;;;;0.40;0.40;;;15.80;99.90;16.30;101503.00;;;;5134916;27;20262;-71
2022/09/18 09:53:26;;;;;;;0.50;0.50;;;15.70;99.90;17.20;101528.00;;;;5134776;27;20693;-71
2022/09/18 09:56:24;;;;;;;1.90;0.70;;;16.20;99.90;17.00;101541.00;;;;5116280;27;20271;-72
2022/09/18 09:59:25;;;;;;;0.43;0.43;;;16.60;99.90;16.20;101528.00;;;;5116628;27;20172;-71
2022/09/18 10:02:14;;;;;;;0.30;0.30;;;16.20;99.90;17.00;101537.00;;;;5079040;27;20204;-71
2022/09/18 10:04:47;;;;;;;1.63;0.50;;;16.20;99.90;17.20;101554.00;;;;5134621;27;20181;-72
2022/09/18 10:07:30;;;;;;;0.30;0.30;;;16.50;99.90;17.10;101550.00;;;;5099015;27;20189;-71
2022/09/18 10:10:16;;;;;;;0.20;0.20;;;16.50;99.90;17.30;101553.00;;;;5116235;27;20175;-72
2022/09/18 10:12:58;;;;;;;0.30;0.30;;;16.60;99.90;18.20;101569.00;;;;5098718;28;20234;-72
2022/09/18 10:15:45;;;;;;;0.67;0.67;;;17.00;99.90;18.60;101588.00;;;;5115855;27;20696;-72
2022/09/18 10:18:33;;;;;;;0.30;0.30;;;17.40;99.90;19.00;101541.00;;;;5099065;27;20592;-72
2022/09/18 10:33:47;;;;;;;0.20;0.20;;;16.90;99.90;18.30;101556.00;;;;5070568;28;21008;-71
2022/09/18 10:36:21;;;;;;;0.20;0.20;;;17.10;99.90;18.80;101606.00;;;;5050826;28;20189;-71
2022/09/18 10:38:48;;;;;;;0.20;0.20;;;17.30;99.90;18.50;101603.00;;;;5066277;28;20174;-71
2022/09/18 10:41:47;;;;;;;0.20;0.20;;;17.40;99.90;18.20;101603.00;;;;5065991;28;20175;-71
2022/09/18 10:44:49;;;;;;;0.20;0.20;;;17.30;99.90;18.80;101609.00;;;;5032102;28;20547;-71
2022/09/18 10:47:26;;;;;;;0.20;0.20;;;17.40;99.90;19.20;101612.00;;;;5049608;28;20192;-69
2022/09/18 10:50:00;;;;;;;0.30;0.30;;;17.70;99.90;19.00;101623.00;;;;5065866;28;20212;-71
2022/09/18 10:52:47;;;;;;;0.30;0.30;;;17.90;99.90;18.50;101608.00;;;;5065273;28;20217;-70
2022/09/18 10:55:21;;;;;;;0.30;0.30;;;17.70;99.90;18.20;101613.00;;;;5065790;28;20640;-71
2022/09/18 10:57:49;;;;;;;0.30;0.30;;;17.50;99.90;18.00;101593.00;;;;5065466;28;20713;-71
2022/09/18 11:00:18;;;;;;;0.30;0.30;;;17.10;99.90;18.60;101595.00;;;;5050015;28;20228;-71
2022/09/18 11:03:09;;;;;;;0.20;0.20;;;17.30;99.90;18.60;101608.00;;;;5049910;28;20193;-72
2022/09/18 11:06:17;;;;;;;0.30;0.30;;;17.40;99.90;18.40;101609.00;;;;5049215;28;20200;-71
2022/09/18 11:08:48;;;;;;;0.87;0.60;;;17.50;99.90;17.80;101602.00;;;;5048760;28;20183;-71
2022/09/18 11:11:29;;;;;;;1.20;0.50;;;17.30;99.90;18.30;101600.00;;;;5065628;28;20182;-71
2022/09/18 11:14:18;;;;;;;0.20;0.20;;;17.30;99.90;18.90;101604.00;;;;5064961;28;20183;-71
2022/09/18 11:16:53;;;;;;;0.20;0.20;;;17.70;99.90;18.70;101615.00;;;;5065529;28;20201;-72
2022/09/18 11:19:37;;;;;;;0.40;0.40;;;17.70;99.90;19.10;101558.00;;;;5064958;28;20689;-71
2022/09/18 11:22:41;;;;;;;0.30;0.30;;;18.00;99.90;19.40;101616.00;;;;5065099;28;20673;-71
2022/09/18 11:25:16;;;;;;;0.40;0.40;;;18.40;99.90;19.20;101604.00;;;;5064882;28;20638;-72
2022/09/18 11:28:21;;;;;;;0.20;0.20;;;18.40;99.90;19.30;101606.00;;;;5049555;28;20189;-72
2022/09/18 11:31:12;;;;;;;0.20;0.20;;;18.20;99.90;19.10;101607.00;;;;5048367;28;20230;-71
2022/09/18 11:33:55;;;;;;;1.00;1.00;;;18.30;99.90;18.90;101605.00;;;;5047919;28;20654;-71
2022/09/18 11:36:32;;;;;;;0.30;0.30;;;18.10;99.90;19.30;101607.00;;;;5064973;28;20324;-71
2022/09/18 11:39:02;;;;;;;0.20;0.20;;;18.30;99.90;19.30;101617.00;;;;5064682;28;20181;-71
2022/09/18 11:41:41;;;;;;;0.30;0.30;;;18.30;99.90;18.60;101618.00;;;;5048043;28;20268;-71
2022/09/18 11:44:24;;;;;;;0.30;0.30;;;17.90;99.90;18.90;101565.00;;;;5055338;28;20184;-71
2022/09/18 11:47:20;;;;;;;0.20;0.20;;;18.00;99.90;18.80;101579.00;;;;5051618;28;20191;-71